Impacts METAR Board INFO
IDs:

KTPA - Tampa Intl Arpt, FL, US

Updated at: 0810 UTC 17 Dec 2017
Potential Impact None Slight Moderate High
Time16/20Z 16/21Z 16/22Z 16/23Z 17/00Z 17/01Z 17/02Z 17/03Z 17/04Z 17/05Z 17/06Z 17/07Z 17/08Z
VIS10 10 10 10 10 10 10 10 10 10 10 10 10
CIG350 -- -- -- -- -- -- -- -- 220 -- -- --
CoverBKNSCTSCTSCTSCTCLRFEWFEWSCTBKNSCTFEWCLR
FltCatVFRVFRVFRVFRVFRVFRVFRVFRVFRVFRVFRVFRVFR
WX--------------------------
WDir00240040405070600407070
WSpd0 0 3 0 4 4 4 5 5 0 3 4 4
WGst-- -- -- -- -- -- -- -- -- -- -- -- --
Raw hourly METARs
KTPA 161953Z 00000KT 10SM BKN350 25/14 A3018 RMK AO2 SLP219 T02500139
KTPA 162053Z 00000KT 10SM SCT250 25/13 A3018 RMK AO2 SLP219 T02500133 56009
KTPA 162153Z 24003KT 10SM SCT250 22/14 A3019 RMK AO2 SLP221 T02220144
KTPA 162253Z 00000KT 10SM SCT250 23/13 A3020 RMK AO2 SLP227 T02280133
KTPA 162353Z 04004KT 10SM SCT250 22/13 A3022 RMK AO2 SLP234 T02170128 10256 20211 53015
KTPA 170053Z 04004KT 10SM CLR 21/13 A3024 RMK AO2 SLP239 T02060128
KTPA 170153Z 05004KT 10SM FEW250 19/12 A3025 RMK AO2 SLP243 T01940122
KTPA 170253Z 07005KT 10SM FEW250 19/12 A3026 RMK AO2 SLP245 T01890122 51011
KTPA 170353Z 06005KT 10SM SCT200 18/12 A3026 RMK AO2 SLP245 T01830122
KTPA 170453Z 00000KT 10SM BKN220 18/12 A3026 RMK AO2 SLP245 T01780122 402560150
KTPA 170553Z 04003KT 10SM SCT220 17/12 A3026 RMK AO2 SLP246 T01670122 10217 20167 52001
KTPA 170653Z 07004KT 10SM FEW220 16/12 A3026 RMK AO2 SLP247 T01610122
KTPA 170753Z 07004KT 10SM CLR 16/12 A3025 RMK AO2 SLP242 T01560122